Rolls, Texas
Current Conditions -  °F | °C
As of 8:58 PM on Monday 20 Oct 2014 (Local Time) from KDYS Reporting Station
Clear Clear  
Wind Chill: 67°   Ceiling: Unl
Heat Index: 67°   Visibility: 10mi
Dew Point: 54°   Wind: 7mph
Humidity: 64%   Direction: 170°S
Pressure: 30.04"   Gusts: NA
Location:  33.1968°N, 99.9025°W
Report Text: KDYS 210158Z AUTO 17006KT 10SM CLR 19/12 A3004 RMK AO2 SLP144 T01930124
Loading
Personal Weather Stations






























Interactive Weather Map New forecast layout! Learn more

10-Day Weather Forecast

Advertisements
Track Severe Weather on mobile